Time;durP1;ratioP1;P1;durP2;ratioP2;P2;SDS_P1;SDS_P2;PMS_P1;PMS_P2;Temp;Humidity;BMP_temperature;BMP_pressure;BME280_temperature;BME280_humidity;BME280_pressure;Samples;Min_cycle;Max_cycle;Signal;HPM_P1;HPM_P2
2022/06/10 00:01:10;;;;;;;;;;;;;;;26.33;37.78;99989.34;5056371;28;886;-42
2022/06/10 00:03:36;;;;;;;;;;;;;;;26.40;37.40;99984.84;5051775;28;1045;-42
2022/06/10 00:06:04;;;;;;;;;;;;;;;26.35;37.92;99981.91;5051465;28;974;-42
2022/06/10 00:08:30;;;;;;;;;;;;;;;26.36;38.31;99986.28;5054048;28;994;-42
2022/06/10 00:10:56;;;;;;;;;;;;;;;26.36;38.15;99981.69;5053216;28;1171;-42
2022/06/10 00:13:22;;;;;;;;;;;;;;;26.37;38.23;99988.78;5055929;28;1894;-42
2022/06/10 00:15:47;;;;;;;;;;;;;;;26.35;38.27;99988.13;5055591;28;1022;-41
2022/06/10 00:18:13;;;;;;;;;;;;;;;26.50;38.09;99996.13;5056529;28;1163;-42
2022/06/10 00:20:39;;;;;;;;;;;;;;;26.50;37.94;99985.34;5054828;28;1079;-42
2022/06/10 00:23:05;;;;;;;;;;;;;;;26.51;37.61;99983.44;5055101;28;1235;-42
2022/06/10 00:25:30;;;;;;;;;;;;;;;26.48;37.40;99986.53;5055996;28;1115;-43
2022/06/10 00:27:55;;;;;;;;;;;;;;;26.60;37.20;99990.38;5036815;28;982;-42
2022/06/10 00:30:22;;;;;;;;;;;;;;;26.58;37.60;99987.03;5046395;28;980;-42
2022/06/10 00:32:47;;;;;;;;;;;;;;;26.50;37.64;99984.50;5051678;28;1025;-42
2022/06/10 00:35:12;;;;;;;;;;;;;;;26.39;37.98;99983.19;5047866;28;1898;-42
2022/06/10 00:37:38;;;;;;;;;;;;;;;26.39;38.02;99981.31;5052454;28;1009;-43
2022/06/10 00:40:03;;;;;;;;;;;;;;;26.41;38.06;99970.31;5054172;28;1175;-43
2022/06/10 00:42:29;;;;;;;;;;;;;;;26.43;38.12;99978.22;5054179;28;1005;-42
2022/06/10 00:44:54;;;;;;;;;;;;;;;26.48;38.19;99976.59;5052641;28;1140;-43
2022/06/10 00:47:21;;;;;;;;;;;;;;;26.56;37.95;99975.59;5056266;28;1205;-42
2022/06/10 00:49:57;;;;;;;;;;;;;;;26.54;37.66;99980.38;5038326;28;1123;-42
2022/06/10 00:52:30;;;;;;;;;;;;;;;26.58;37.79;99980.78;5026570;28;875;-42
2022/06/10 00:54:55;;;;;;;;;;;;;;;26.64;37.38;99983.53;5055816;28;1983;-43
2022/06/10 00:57:40;;;;;;;;;;;;;;;26.68;37.45;99988.53;5028241;28;1169;-43
2022/06/10 01:00:06;;;;;;;;;;;;;;;26.64;37.48;99988.13;5037610;28;1029;-43
2022/06/10 01:02:32;;;;;;;;;;;;;;;26.47;38.03;99985.72;5049950;28;1029;-42
2022/06/10 01:04:58;;;;;;;;;;;;;;;26.43;38.07;99989.00;5053406;28;1021;-42
2022/06/10 01:07:26;;;;;;;;;;;;;;;26.43;38.28;99984.44;5053736;28;1433;-42
2022/06/10 01:09:51;;;;;;;;;;;;;;;26.46;38.25;99989.44;5054976;28;1135;-42
2022/06/10 01:12:36;;;;;;;;;;;;;;;26.54;37.65;99977.69;5037785;28;1196;-42
2022/06/10 01:15:11;;;;;;;;;;;;;;;26.58;37.96;99980.78;5049283;28;1957;-43
2022/06/10 01:17:36;;;;;;;;;;;;;;;26.64;37.86;99977.31;5037799;28;1029;-43
2022/06/10 01:20:07;;;;;;;;;;;;;;;26.62;37.32;99977.53;5055678;28;1072;-42
2022/06/10 01:22:52;;;;;;;;;;;;;;;26.70;36.97;99981.91;5037971;28;1077;-42
2022/06/10 01:25:36;;;;;;;;;;;;;;;26.71;37.21;99977.38;5053006;28;1362;-43
2022/06/10 01:28:16;;;;;;;;;;;;;;;26.59;37.49;99980.59;5051865;28;1025;-43
2022/06/10 01:30:42;;;;;;;;;;;;;;;26.48;37.92;99982.00;5058532;28;862;-43
2022/06/10 01:33:10;;;;;;;;;;;;;;;26.40;38.33;99987.53;5055549;28;1915;-43
2022/06/10 01:35:45;;;;;;;;;;;;;;;26.49;38.13;99980.13;5059599;28;1056;-42
2022/06/10 01:38:23;;;;;;;;;;;;;;;26.54;37.68;99980.38;5056978;28;1060;-42
2022/06/10 01:40:51;;;;;;;;;;;;;;;26.63;37.37;99981.03;5052745;28;1112;-42
2022/06/10 01:43:23;;;;;;;;;;;;;;;26.71;37.23;99982.75;5059230;28;1160;-42
2022/06/10 01:45:54;;;;;;;;;;;;;;;26.70;37.31;99983.78;5041679;28;1047;-43
2022/06/10 01:48:20;;;;;;;;;;;;;;;26.70;37.25;99984.63;5039852;28;1227;-42
2022/06/10 01:50:53;;;;;;;;;;;;;;;26.74;36.96;99979.66;5055176;28;1029;-43
2022/06/10 01:53:22;;;;;;;;;;;;;;;26.48;37.74;99976.59;5036628;28;1902;-42
2022/06/10 01:55:47;;;;;;;;;;;;;;;26.44;37.72;99972.66;5058985;28;894;-43
2022/06/10 01:58:25;;;;;;;;;;;;;;;26.47;37.92;99982.19;5059554;28;993;-42
2022/06/10 02:00:52;;;;;;;;;;;;;;;26.44;38.00;99975.34;5056472;28;1142;-43
2022/06/10 02:03:21;;;;;;;;;;;;;;;26.56;37.81;99985.56;5041758;28;1105;-42
2022/06/10 02:05:48;;;;;;;;;;;;;;;26.56;37.47;99969.41;5056282;28;1187;-42
2022/06/10 02:08:40;;;;;;;;;;;;;;;26.71;37.27;99967.38;5040990;28;1096;-42
2022/06/10 02:11:07;;;;;;;;;;;;;;;26.76;36.78;99974.88;5044007;28;1435;-42
2022/06/10 02:13:34;;;;;;;;;;;;;;;26.74;36.94;99969.69;5041236;28;1959;-42
2022/06/10 02:16:00;;;;;;;;;;;;;;;26.76;36.63;99974.88;5053967;28;1128;-43
2022/06/10 02:18:25;;;;;;;;;;;;;;;26.80;37.22;99976.16;5040585;28;1029;-43
2022/06/10 02:20:51;;;;;;;;;;;;;;;26.81;37.23;99982.41;5052092;28;1456;-42
2022/06/10 02:23:18;;;;;;;;;;;;;;;26.68;37.15;99983.97;5034510;28;1061;-42
2022/06/10 02:25:47;;;;;;;;;;;;;;;26.69;37.69;99985.66;5036259;28;982;-42
2022/06/10 02:28:14;;;;;;;;;;;;;;;26.74;36.97;99991.25;5030619;28;1212;-42
2022/06/10 02:31:00;;;;;;;;;;;;;;;26.76;37.18;99989.22;5050451;28;1135;-43
2022/06/10 02:33:25;;;;;;;;;;;;;;;26.72;37.15;99993.34;5037688;28;1960;-42
2022/06/10 02:35:54;;;;;;;;;;;;;;;26.70;37.33;99998.09;5037400;28;1110;-40
2022/06/10 02:38:22;;;;;;;;;;;;;;;26.71;37.23;99998.94;5038065;28;1180;-42
2022/06/10 02:40:53;;;;;;;;;;;;;;;26.71;36.95;99994.38;5058108;28;1032;-43
2022/06/10 02:43:28;;;;;;;;;;;;;;;26.84;37.17;100007.09;5056103;28;1160;-42
2022/06/10 02:45:57;;;;;;;;;;;;;;;26.63;37.40;100000.75;5048403;28;966;-42
2022/06/10 02:48:27;;;;;;;;;;;;;;;26.49;38.80;100007.91;5048713;28;1357;-43
2022/06/10 02:50:52;;;;;;;;;;;;;;;26.36;43.42;100015.94;5054832;28;1057;-43
2022/06/10 02:53:17;;;;;;;;;;;;;;;26.31;43.88;100008.38;5056651;28;1902;-43
2022/06/10 02:55:43;;;;;;;;;;;;;;;26.07;41.73;100010.50;5058168;28;1065;-43
2022/06/10 03:01:13;;;;;;;;;;;;;;;25.92;42.77;100015.94;5051365;28;823;-43
2022/06/10 03:03:51;;;;;;;;;;;;;;;25.91;42.10;100017.81;5048011;28;941;-44
2022/06/10 03:06:20;;;;;;;;;;;;;;;25.84;41.98;100018.78;5040395;28;1132;-43
2022/06/10 03:08:46;;;;;;;;;;;;;;;25.96;43.54;100021.78;5051118;28;1048;-44
2022/06/10 03:11:14;;;;;;;;;;;;;;;26.00;45.46;100018.50;5054995;28;1006;-43
2022/06/10 03:13:57;;;;;;;;;;;;;;;26.10;43.48;100020.03;5054968;28;1959;-43
2022/06/10 03:16:41;;;;;;;;;;;;;;;26.14;44.25;100021.34;5056454;28;1088;-43
2022/06/10 03:19:09;;;;;;;;;;;;;;;26.09;43.44;100019.19;5051377;28;1041;-42
2022/06/10 03:21:53;;;;;;;;;;;;;;;26.15;43.50;100026.53;5052514;28;1180;-43
2022/06/10 03:24:20;;;;;;;;;;;;;;;26.17;43.30;100027.16;5053313;28;1092;-43
2022/06/10 03:26:50;;;;;;;;;;;;;;;26.24;43.53;100035.28;5053964;28;1183;-44
2022/06/10 03:29:34;;;;;;;;;;;;;;;26.29;43.34;100032.03;5054221;28;1065;-46
2022/06/10 03:32:09;;;;;;;;;;;;;;;26.25;43.96;100026.19;5056372;28;1084;-45
2022/06/10 03:34:39;;;;;;;;;;;;;;;26.29;44.22;100027.44;5037258;28;1902;-44
2022/06/10 03:37:05;;;;;;;;;;;;;;;26.29;44.84;100018.56;5055773;28;1076;-44
2022/06/10 03:39:30;;;;;;;;;;;;;;;26.44;43.68;100025.75;5057373;28;1029;-44
2022/06/10 03:42:05;;;;;;;;;;;;;;;26.51;43.62;100023.91;5028023;28;954;-44
2022/06/10 03:44:30;;;;;;;;;;;;;;;26.34;44.10;100026.09;5047700;28;990;-45
2022/06/10 03:46:56;;;;;;;;;;;;;;;26.48;43.78;100029.69;5030076;28;1178;-46
2022/06/10 03:49:23;;;;;;;;;;;;;;;26.43;44.31;100021.34;5053357;28;1056;-45
2022/06/10 03:51:49;;;;;;;;;;;;;;;26.45;44.59;100024.69;5056716;28;909;-44
2022/06/10 03:54:17;;;;;;;;;;;;;;;26.68;44.28;100026.28;5055940;28;1969;-44
2022/06/10 03:56:42;;;;;;;;;;;;;;;26.59;44.84;100014.84;5038676;28;974;-45
2022/06/10 03:59:08;;;;;;;;;;;;;;;26.75;43.54;100025.31;5056827;28;1029;-45
2022/06/10 04:01:33;;;;;;;;;;;;;;;26.78;44.34;100033.03;5057046;28;970;-45
2022/06/10 04:03:59;;;;;;;;;;;;;;;26.68;45.62;100027.13;5051600;28;931;-45
2022/06/10 04:06:25;;;;;;;;;;;;;;;26.48;46.24;100029.69;5057610;28;989;-44
2022/06/10 04:08:50;;;;;;;;;;;;;;;26.40;40.49;100036.91;5056832;28;997;-44
2022/06/10 04:11:15;;;;;;;;;;;;;;;26.51;40.42;100032.84;5056482;28;970;-45
2022/06/10 04:13:41;;;;;;;;;;;;;;;26.49;43.97;100036.78;5056569;28;1894;-45
2022/06/10 04:16:06;;;;;;;;;;;;;;;26.45;44.99;100040.88;5056401;28;1005;-45
2022/06/10 04:18:31;;;;;;;;;;;;;;;26.57;45.40;100043.88;5055978;28;969;-45
2022/06/10 04:20:57;;;;;;;;;;;;;;;26.44;46.17;100039.22;5056855;28;1239;-46
2022/06/10 04:23:22;;;;;;;;;;;;;;;26.61;44.63;100043.28;5056966;28;1068;-44
2022/06/10 04:25:48;;;;;;;;;;;;;;;26.67;44.56;100040.81;5056291;28;1216;-44
2022/06/10 04:28:13;;;;;;;;;;;;;;;26.62;45.55;100046.81;5056371;28;1080;-44
2022/06/10 04:30:40;;;;;;;;;;;;;;;26.56;44.97;100042.22;5055999;28;950;-45
2022/06/10 04:33:05;;;;;;;;;;;;;;;26.66;45.41;100050.78;5056639;28;1969;-44
2022/06/10 04:35:32;;;;;;;;;;;;;;;26.15;48.48;100050.78;5056571;28;989;-45
2022/06/10 04:37:57;;;;;;;;;;;;;;;26.28;47.47;100057.31;5038876;28;1117;-45
2022/06/10 04:40:24;;;;;;;;;;;;;;;26.58;45.71;100057.16;5056637;28;1045;-44
2022/06/10 04:42:49;;;;;;;;;;;;;;;26.51;46.87;100051.72;5055907;28;1152;-44
2022/06/10 04:45:15;;;;;;;;;;;;;;;26.28;47.49;100055.47;5056159;28;973;-44
2022/06/10 04:47:40;;;;;;;;;;;;;;;26.50;45.90;100054.63;5055762;28;1057;-44
2022/06/10 04:50:06;;;;;;;;;;;;;;;26.57;42.75;100060.91;5056076;28;1203;-45
2022/06/10 04:52:31;;;;;;;;;;;;;;;26.22;48.03;100064.31;5056468;28;997;-44
2022/06/10 04:54:57;;;;;;;;;;;;;;;25.97;49.31;100058.47;5055719;28;1973;-45
2022/06/10 04:57:22;;;;;;;;;;;;;;;26.09;48.65;100067.72;5056157;28;994;-44
2022/06/10 04:59:47;;;;;;;;;;;;;;;26.47;47.37;100071.19;5055467;28;1080;-44
2022/06/10 05:02:13;;;;;;;;;;;;;;;26.72;46.52;100074.28;5055950;28;1207;-44
2022/06/10 05:04:38;;;;;;;;;;;;;;;24.88;47.46;100075.09;5056556;28;985;-43
2022/06/10 05:07:03;;;;;;;;;;;;;;;22.05;60.94;100074.44;5050260;28;926;-43
2022/06/10 05:09:29;;;;;;;;;;;;;;;24.86;50.38;100080.69;5036829;28;1006;-43
2022/06/10 05:11:54;;;;;;;;;;;;;;;25.82;48.53;100078.25;5055715;28;1287;-43
2022/06/10 05:14:19;;;;;;;;;;;;;;;22.18;58.82;100077.47;5056170;28;1906;-43
2022/06/10 05:16:45;;;;;;;;;;;;;;;24.67;50.58;100082.06;5055857;28;1167;-43
2022/06/10 05:19:10;;;;;;;;;;;;;;;25.59;49.18;100081.88;5055622;28;1092;-43
2022/06/10 05:21:35;;;;;;;;;;;;;;;21.68;59.69;100077.34;5055877;28;982;-43
2022/06/10 05:24:00;;;;;;;;;;;;;;;24.35;50.65;100087.53;5055503;28;1068;-43
2022/06/10 05:26:29;;;;;;;;;;;;;;;25.39;49.67;100087.03;5055298;28;1101;-42
2022/06/10 05:28:54;;;;;;;;;;;;;;;21.46;57.50;100086.78;5054210;28;1215;-43
2022/06/10 05:31:19;;;;;;;;;;;;;;;23.80;52.53;100090.22;5052779;28;1193;-43
2022/06/10 05:36:29;;;;;;;;;;;;;;;25.86;44.70;100086.78;5055852;28;1076;-43
2022/06/10 05:38:55;;;;;;;;;;;;;;;23.10;51.58;100082.78;5054783;28;1215;-43
2022/06/10 05:44:05;;;;;;;;;;;;;;;23.92;50.58;100094.16;5048534;28;1010;-43
2022/06/10 05:46:30;;;;;;;;;;;;;;;25.34;47.92;100098.34;5051615;28;1153;-43
2022/06/10 05:48:55;;;;;;;;;;;;;;;25.87;44.65;100100.06;5050268;28;1172;-43
2022/06/10 05:51:20;;;;;;;;;;;;;;;23.60;48.22;100098.72;5052737;28;1068;-43
2022/06/10 05:53:46;;;;;;;;;;;;;;;21.28;54.60;100098.44;5053162;28;1980;-43
2022/06/10 05:56:11;;;;;;;;;;;;;;;21.90;57.85;100104.53;5054582;28;1065;-43
2022/06/10 05:58:36;;;;;;;;;;;;;;;24.36;47.55;100101.81;5054713;28;1191;-42
2022/06/10 06:01:02;;;;;;;;;;;;;;;25.34;45.70;100105.59;5055008;28;1033;-44
2022/06/10 06:03:27;;;;;;;;;;;;;;;25.80;47.03;100099.97;5053790;28;1005;-43
2022/06/10 06:05:52;;;;;;;;;;;;;;;22.61;50.59;100101.47;5047109;28;966;-42
2022/06/10 06:08:18;;;;;;;;;;;;;;;21.11;58.56;100108.19;5055442;28;1151;-43
2022/06/10 06:10:43;;;;;;;;;;;;;;;23.79;49.50;100108.19;5050988;28;996;-43
2022/06/10 06:13:10;;;;;;;;;;;;;;;25.12;47.58;100111.72;5056279;28;1964;-43
2022/06/10 06:15:35;;;;;;;;;;;;;;;25.65;44.76;100116.19;5058630;28;1025;-43
2022/06/10 06:18:00;;;;;;;;;;;;;;;23.94;45.72;100110.94;5058227;28;1311;-43
2022/06/10 06:20:26;;;;;;;;;;;;;;;21.14;54.40;100115.88;5040472;28;1322;-43
2022/06/10 06:22:53;;;;;;;;;;;;;;;21.87;56.94;100124.44;5059011;28;1148;-43
2022/06/10 06:25:18;;;;;;;;;;;;;;;24.39;48.10;100125.66;5058055;28;946;-43
2022/06/10 06:27:44;;;;;;;;;;;;;;;25.21;46.88;100128.59;5058986;28;1052;-42
2022/06/10 06:30:11;;;;;;;;;;;;;;;25.59;46.65;100129.53;5057894;28;1124;-43
2022/06/10 06:32:36;;;;;;;;;;;;;;;25.95;44.09;100130.59;5034698;28;1010;-42
2022/06/10 06:35:02;;;;;;;;;;;;;;;26.07;45.01;100139.03;5058864;28;1957;-43
2022/06/10 06:37:27;;;;;;;;;;;;;;;26.40;43.75;100142.09;5040284;28;873;-43
2022/06/10 06:39:52;;;;;;;;;;;;;;;26.42;43.85;100144.59;5058638;28;1006;-47
2022/06/10 06:42:17;;;;;;;;;;;;;;;26.24;45.51;100143.13;5057594;28;1210;-43
2022/06/10 06:44:43;;;;;;;;;;;;;;;26.27;46.33;100147.31;5057127;28;1088;-42
2022/06/10 06:47:13;;;;;;;;;;;;;;;24.99;49.77;100151.91;5057578;28;1036;-42
2022/06/10 06:49:38;;;;;;;;;;;;;;;25.55;48.77;100150.59;5057806;28;993;-42
2022/06/10 06:52:06;;;;;;;;;;;;;;;25.97;47.39;100150.09;5058324;28;1144;-42
2022/06/10 06:54:32;;;;;;;;;;;;;;;26.25;45.89;100152.06;5057440;28;1906;-43
2022/06/10 06:56:57;;;;;;;;;;;;;;;26.61;44.91;100155.75;5058103;28;1159;-42
2022/06/10 06:59:22;;;;;;;;;;;;;;;26.01;46.96;100151.38;5054518;28;1061;-42
2022/06/10 07:01:48;;;;;;;;;;;;;;;23.93;53.59;100154.97;5055598;28;1025;-42
2022/06/10 07:04:13;;;;;;;;;;;;;;;24.81;51.29;100159.25;5058317;28;1001;-42
2022/06/10 07:06:38;;;;;;;;;;;;;;;24.24;52.97;100155.16;5058008;28;1036;-42
2022/06/10 07:09:04;;;;;;;;;;;;;;;25.70;48.48;100158.72;5058184;28;1100;-42
2022/06/10 07:11:31;;;;;;;;;;;;;;;25.61;47.49;100081.72;5058056;28;1207;-43
2022/06/10 07:13:56;;;;;;;;;;;;;;;26.35;45.74;100160.72;5058911;28;1957;-44
2022/06/10 07:16:21;;;;;;;;;;;;;;;26.29;46.18;100156.88;5054964;28;1030;-43
2022/06/10 07:18:47;;;;;;;;;;;;;;;26.38;45.39;100146.84;5057360;28;1306;-44
2022/06/10 07:21:12;;;;;;;;;;;;;;;26.35;44.59;100160.72;5057522;28;1137;-42
2022/06/10 07:23:37;;;;;;;;;;;;;;;26.38;44.33;100162.16;5057894;28;1009;-42
2022/06/10 07:26:03;;;;;;;;;;;;;;;26.48;44.26;100165.38;5056950;28;1049;-42
2022/06/10 07:28:29;;;;;;;;;;;;;;;26.50;44.55;100163.34;5057402;28;1278;-39
2022/06/10 07:30:54;;;;;;;;;;;;;;;26.53;44.22;100165.66;5056530;28;1081;-43
2022/06/10 07:33:19;;;;;;;;;;;;;;;26.59;43.92;100174.00;5057397;28;1886;-41
2022/06/10 07:35:45;;;;;;;;;;;;;;;26.79;44.00;100171.47;5057392;28;1254;-41
2022/06/10 07:38:10;;;;;;;;;;;;;;;26.86;43.78;100177.75;5057510;28;1013;-43
2022/06/10 07:43:21;;;;;;;;;;;;;;;26.92;43.49;100178.00;5056890;28;978;-42
2022/06/10 07:45:46;;;;;;;;;;;;;;;26.96;43.20;100187.38;5055797;28;927;-36
2022/06/10 07:48:11;;;;;;;;;;;;;;;26.90;43.11;100183.59;5057246;28;1179;-36
2022/06/10 07:50:37;;;;;;;;;;;;;;;26.98;43.05;100188.84;5057215;28;986;-37
2022/06/10 07:53:03;;;;;;;;;;;;;;;27.00;42.79;100188.66;5054886;28;1192;-37
2022/06/10 07:55:28;;;;;;;;;;;;;;;27.10;42.40;100193.72;5057306;28;1909;-37
2022/06/10 07:57:54;;;;;;;;;;;;;;;27.09;42.68;100197.47;5057217;28;1048;-36
2022/06/10 08:00:19;;;;;;;;;;;;;;;27.13;42.61;100191.47;5056330;28;1564;-36
2022/06/10 08:02:45;;;;;;;;;;;;;;;27.13;42.57;100198.72;5056879;28;943;-36
2022/06/10 08:05:12;;;;;;;;;;;;;;;27.12;42.57;100197.06;5057269;28;946;-36
2022/06/10 08:07:37;;;;;;;;;;;;;;;27.14;42.53;100192.31;5056599;28;969;-36
2022/06/10 08:10:04;;;;;;;;;;;;;;;27.13;42.66;100204.13;5056767;28;977;-36
2022/06/10 08:12:29;;;;;;;;;;;;;;;27.20;42.34;100202.34;5038248;28;1018;-36
2022/06/10 08:14:54;;;;;;;;;;;;;;;27.25;42.28;100210.69;5055582;28;1898;-36
2022/06/10 08:17:19;;;;;;;;;;;;;;;27.30;42.42;100212.78;5056868;28;1128;-36
2022/06/10 08:19:45;;;;;;;;;;;;;;;27.30;42.50;100212.78;5057163;28;1243;-36
2022/06/10 08:24:54;;;;;;;;;;;;;;;27.37;42.02;100207.41;5056682;28;1009;-36
2022/06/10 08:27:19;;;;;;;;;;;;;;;27.39;42.35;100208.88;5056492;28;993;-36
2022/06/10 08:29:44;;;;;;;;;;;;;;;27.42;42.11;100212.22;5055694;28;875;-36
2022/06/10 08:32:10;;;;;;;;;;;;;;;27.50;42.21;100214.78;5055957;28;970;-36
2022/06/10 08:34:36;;;;;;;;;;;;;;;27.48;41.91;100220.38;5056026;28;2009;-36
2022/06/10 08:37:02;;;;;;;;;;;;;;;27.45;41.94;100223.47;5056152;28;1037;-36
2022/06/10 08:39:27;;;;;;;;;;;;;;;27.65;41.92;100228.16;5056379;28;1005;-36
2022/06/10 08:42:11;;;;;;;;;;;;;;;27.66;41.21;100226.28;5037329;28;1014;-36
2022/06/10 08:44:53;;;;;;;;;;;;;;;27.62;41.41;100232.09;5055136;28;1172;-36
2022/06/10 08:47:37;;;;;;;;;;;;;;;27.54;41.21;100234.13;5055929;28;1178;-36
2022/06/10 08:50:06;;;;;;;;;;;;;;;27.58;41.34;100233.53;5056071;28;1029;-37
2022/06/10 08:52:46;;;;;;;;;;;;;;;27.61;41.31;100235.00;5038201;28;1038;-36
2022/06/10 08:55:35;;;;;;;;;;;;;;;27.63;41.44;100232.91;5055472;28;2077;-36
2022/06/10 08:58:01;;;;;;;;;;;;;;;27.62;41.79;100240.22;5042986;28;1208;-37
2022/06/10 09:00:27;;;;;;;;;;;;;;;27.76;41.59;100240.28;5037489;28;999;-36
2022/06/10 09:02:59;;;;;;;;;;;;;;;27.86;41.39;100232.66;5038007;28;1314;-36
2022/06/10 09:05:29;;;;;;;;;;;;;;;27.88;41.11;100235.16;5053318;28;1180;-37
2022/06/10 09:07:56;;;;;;;;;;;;;;;27.75;41.87;100238.63;5036578;28;1140;-37
2022/06/10 09:10:24;;;;;;;;;;;;;;;27.86;41.26;100240.75;5055374;28;1342;-36
2022/06/10 09:13:05;;;;;;;;;;;;;;;27.91;41.11;100239.34;5055446;28;1041;-37
2022/06/10 09:15:30;;;;;;;;;;;;;;;27.76;41.62;100237.59;5055513;28;1967;-35
2022/06/10 09:17:57;;;;;;;;;;;;;;;27.88;41.17;100237.84;5036895;28;1045;-36
2022/06/10 09:20:23;;;;;;;;;;;;;;;27.92;41.41;100244.53;5055723;28;1072;-36
2022/06/10 09:22:49;;;;;;;;;;;;;;;27.89;41.14;100246.81;5054968;28;1078;-36
2022/06/10 09:25:29;;;;;;;;;;;;;;;27.86;41.16;100240.75;5056044;28;1104;-36
2022/06/10 09:27:55;;;;;;;;;;;;;;;27.84;41.45;100242.00;5038111;28;927;-36
2022/06/10 09:30:21;;;;;;;;;;;;;;;27.87;41.00;100239.75;5036952;28;950;-37
2022/06/10 09:32:56;;;;;;;;;;;;;;;27.87;40.91;100245.16;5055678;28;989;-37
2022/06/10 09:35:30;;;;;;;;;;;;;;;27.84;40.89;100242.00;5054709;28;1959;-36
2022/06/10 09:37:55;;;;;;;;;;;;;;;27.83;40.91;100248.44;5055166;28;1132;-36
2022/06/10 09:40:39;;;;;;;;;;;;;;;27.86;40.69;100253.47;5056125;28;1112;-37
2022/06/10 09:43:16;;;;;;;;;;;;;;;27.79;41.07;100256.13;5039998;28;1030;-37
2022/06/10 09:45:45;;;;;;;;;;;;;;;27.82;40.87;100255.72;5056845;28;980;-37
2022/06/10 09:48:30;;;;;;;;;;;;;;;27.81;40.98;100267.56;5040181;28;1260;-37
2022/06/10 09:50:55;;;;;;;;;;;;;;;27.80;40.41;100265.91;5059259;28;1068;-37
2022/06/10 09:53:25;;;;;;;;;;;;;;;27.77;40.64;100268.16;5059042;28;1918;-36
2022/06/10 09:56:09;;;;;;;;;;;;;;;27.79;40.97;100272.34;5040493;28;1112;-37
2022/06/10 09:58:38;;;;;;;;;;;;;;;27.78;40.93;100275.25;5055912;28;1193;-37
2022/06/10 10:01:29;;;;;;;;;;;;;;;27.83;40.92;100276.31;5040195;28;1118;-36
2022/06/10 10:03:57;;;;;;;;;;;;;;;27.80;41.03;100270.47;5038860;28;1411;-36
2022/06/10 10:06:23;;;;;;;;;;;;;;;27.90;41.20;100275.50;5059040;28;1179;-36
2022/06/10 10:08:57;;;;;;;;;;;;;;;27.75;41.02;100271.06;5058081;28;973;-36
2022/06/10 10:11:22;;;;;;;;;;;;;;;27.77;41.46;100271.69;5058552;28;1033;-36
2022/06/10 10:13:56;;;;;;;;;;;;;;;27.78;41.67;100267.13;5058041;28;2020;-36
2022/06/10 10:16:27;;;;;;;;;;;;;;;27.82;41.76;100274.66;5058901;28;1069;-36
2022/06/10 10:19:12;;;;;;;;;;;;;;;27.89;41.84;100282.78;5041241;28;1116;-36
2022/06/10 10:21:49;;;;;;;;;;;;;;;27.94;41.71;100296.53;5058742;28;1152;-36
2022/06/10 10:24:18;;;;;;;;;;;;;;;27.79;41.97;100291.25;5058968;28;1073;-40
2022/06/10 10:26:43;;;;;;;;;;;;;;;27.45;44.59;100290.16;5055513;28;1112;-40
2022/06/10 10:29:13;;;;;;;;;;;;;;;27.77;42.78;100284.38;5040286;28;1431;-39
2022/06/10 10:31:42;;;;;;;;;;;;;;;27.46;40.46;100291.84;5040473;28;1073;-38
2022/06/10 10:34:07;;;;;;;;;;;;;;;27.13;42.58;100285.13;5058279;28;1898;-39
2022/06/10 10:36:36;;;;;;;;;;;;;;;27.09;45.00;100289.25;5058436;28;1010;-40
2022/06/10 10:39:14;;;;;;;;;;;;;;;26.81;46.24;100281.91;5040896;28;1096;-40
2022/06/10 10:41:42;;;;;;;;;;;;;;;27.05;44.48;100291.50;5056956;28;974;-39
2022/06/10 10:44:18;;;;;;;;;;;;;;;27.18;45.71;100292.63;5040516;28;1006;-39
2022/06/10 10:47:04;;;;;;;;;;;;;;;27.38;45.02;100282.84;5040097;28;1072;-40
2022/06/10 10:49:31;;;;;;;;;;;;;;;27.05;46.36;100285.25;5057906;28;1276;-41
2022/06/10 10:51:56;;;;;;;;;;;;;;;27.31;45.57;100281.13;5039434;28;1104;-38
2022/06/10 10:54:28;;;;;;;;;;;;;;;27.34;45.13;100276.16;5058173;28;1918;-39
2022/06/10 10:56:54;;;;;;;;;;;;;;;27.54;44.81;100264.69;5057480;28;1159;-39
2022/06/10 10:59:28;;;;;;;;;;;;;;;27.61;44.74;100267.44;5039637;28;1069;-41
2022/06/10 11:01:54;;;;;;;;;;;;;;;27.71;45.32;100267.91;5039835;28;1141;-40
2022/06/10 11:04:32;;;;;;;;;;;;;;;27.81;45.25;100269.44;5057986;28;1072;-42
2022/06/10 11:06:58;;;;;;;;;;;;;;;27.75;46.18;100266.50;5058278;28;1156;-39
2022/06/10 11:09:24;;;;;;;;;;;;;;;28.01;44.77;100269.50;5057855;28;894;-41
2022/06/10 11:11:49;;;;;;;;;;;;;;;27.68;46.06;100260.22;5057631;28;1093;-40
2022/06/10 11:14:19;;;;;;;;;;;;;;;27.89;44.17;100252.22;5038155;28;1941;-40
2022/06/10 11:17:09;;;;;;;;;;;;;;;26.29;45.71;100256.63;5039638;28;1207;-40
2022/06/10 11:19:35;;;;;;;;;;;;;;;23.62;53.79;100241.69;5047784;28;1575;-41
2022/06/10 11:22:03;;;;;;;;;;;;;;;25.64;50.68;100256.44;5039888;28;2105;-39
2022/06/10 11:24:30;;;;;;;;;;;;;;;26.86;47.55;100255.19;5057702;28;1033;-39
2022/06/10 11:26:57;;;;;;;;;;;;;;;27.32;44.66;100261.19;5057820;28;1034;-38
2022/06/10 11:29:23;;;;;;;;;;;;;;;27.44;44.76;100258.78;5057405;28;1022;-41
2022/06/10 11:31:58;;;;;;;;;;;;;;;27.75;44.43;100260.25;5057377;28;1125;-41
2022/06/10 11:34:43;;;;;;;;;;;;;;;27.92;43.87;100266.16;5057932;28;1894;-39
2022/06/10 11:37:27;;;;;;;;;;;;;;;27.65;42.42;100263.28;5053006;28;1345;-39
2022/06/10 11:39:56;;;;;;;;;;;;;;;23.55;53.01;100262.16;5057462;28;1052;-41
2022/06/10 11:42:25;;;;;;;;;;;;;;;24.76;52.50;100254.94;5057330;28;1056;-41
2022/06/10 11:44:56;;;;;;;;;;;;;;;26.64;46.91;100255.19;5038224;28;918;-41
2022/06/10 11:47:29;;;;;;;;;;;;;;;27.32;45.10;100261.19;5039050;28;1128;-40
2022/06/10 11:50:13;;;;;;;;;;;;;;;27.47;45.73;100266.50;5038053;28;1083;-41
2022/06/10 11:52:57;;;;;;;;;;;;;;;27.12;45.46;100268.13;5056910;28;1370;-42
2022/06/10 11:55:26;;;;;;;;;;;;;;;24.81;49.40;100276.75;5054307;28;1922;-41
2022/06/10 12:00:46;;;;;;;;;;;;;;;24.74;52.71;100267.75;5055376;28;989;-37
2022/06/10 12:03:17;;;;;;;;;;;;;;;26.60;48.04;100270.06;5033611;28;966;-38
2022/06/10 12:05:54;;;;;;;;;;;;;;;26.81;46.90;100273.81;5056046;28;951;-39
2022/06/10 12:08:38;;;;;;;;;;;;;;;27.28;46.10;100281.53;5052046;28;922;-39
2022/06/10 12:11:21;;;;;;;;;;;;;;;27.13;47.31;100283.28;5056843;28;969;-40
2022/06/10 12:13:49;;;;;;;;;;;;;;;24.02;51.42;100273.13;5056642;28;1996;-40
2022/06/10 12:16:14;;;;;;;;;;;;;;;23.23;57.76;100268.22;5035535;28;1196;-39
2022/06/10 12:18:42;;;;;;;;;;;;;;;25.24;50.31;100267.38;5056452;28;977;-40
2022/06/10 12:21:10;;;;;;;;;;;;;;;25.80;48.11;100267.03;5037563;28;1116;-40
2022/06/10 12:23:36;;;;;;;;;;;;;;;26.16;48.35;100267.25;5038698;28;998;-39
2022/06/10 12:26:13;;;;;;;;;;;;;;;26.19;47.05;100264.22;5055904;28;1033;-39
2022/06/10 12:28:42;;;;;;;;;;;;;;;26.82;46.49;100259.28;5051099;28;942;-39
2022/06/10 12:31:28;;;;;;;;;;;;;;;27.19;44.52;100260.06;5056147;28;1274;-39
2022/06/10 12:34:23;;;;;;;;;;;;;;;27.48;44.07;100254.66;4998103;28;1894;-39
2022/06/10 12:37:02;;;;;;;;;;;;;;;27.37;44.42;100259.59;5041444;28;1312;-39
2022/06/10 12:39:29;;;;;;;;;;;;;;;27.08;45.07;100268.69;5054187;28;1142;-39
2022/06/10 12:42:04;;;;;;;;;;;;;;;24.08;50.03;100259.84;5038630;28;1232;-39
2022/06/10 12:44:30;;;;;;;;;;;;;;;23.32;57.09;100262.84;5037916;28;1013;-39
2022/06/10 12:46:59;;;;;;;;;;;;;;;25.24;49.44;100278.97;5056012;28;1204;-39
2022/06/10 12:49:39;;;;;;;;;;;;;;;26.55;45.53;100267.09;5037988;28;1025;-40
2022/06/10 12:52:33;;;;;;;;;;;;;;;26.97;45.98;100272.72;5056208;28;1191;-40
2022/06/10 12:55:05;;;;;;;;;;;;;;;27.23;44.33;100271.28;5037587;28;1915;-39
2022/06/10 12:57:33;;;;;;;;;;;;;;;27.17;41.46;100262.13;5056180;28;994;-39
2022/06/10 13:00:17;;;;;;;;;;;;;;;27.32;43.44;100267.44;5055585;28;1053;-35
2022/06/10 13:02:46;;;;;;;;;;;;;;;27.48;42.60;100257.34;5056117;28;1017;-36
2022/06/10 13:05:18;;;;;;;;;;;;;;;27.46;43.61;100257.53;5055819;28;978;-35
2022/06/10 13:07:43;;;;;;;;;;;;;;;27.57;42.47;100260.75;5037796;28;1078;-36
2022/06/10 13:10:27;;;;;;;;;;;;;;;27.69;42.83;100255.66;5055858;28;1083;-36
2022/06/10 13:12:53;;;;;;;;;;;;;;;27.78;43.02;100256.34;5055713;28;1144;-36
2022/06/10 13:15:26;;;;;;;;;;;;;;;23.39;51.13;100255.78;5037379;28;1898;-36
2022/06/10 13:18:03;;;;;;;;;;;;;;;22.94;57.17;100248.09;5037561;28;1173;-36